PWSweather.com
Personal Weather Stations
Station Observations
CANDIOTINO
Barrio Candioti Norte, Santa FeAR 3000

Barrio Candioti NorteSanta FeAR 3000

Lat: -31.632778, Lon: -60.695556

Elevation: 69

Station Type: WH-1081

http://www.eltiempoensantafe.com.ar

High Low Average
Temperature 65.3°F18.5°C 43.2°F6.2°C 53.3°F11.8°C
Dew Point 46.2°F7.9°C 39.0°F3.9°C 42.3°F5.7°C
Winds 9.2 mph 14.8 kmh 0.7 mph 1.1 kmh 4.0 mph ENE6.4 kmh ENE
Wind Gusts 16.8 mph27.0 kmh 3.1 mph5.0 kmh 9.0 mph14.5 kmh
Humidity 92% 42% 68%
Pressure 30.19 in1022.4 mb 29.86 in1011.2 mb -
Precipitation 0.00 in0.0 mm - -
Hour Temp Dew Point Humidity Winds Wind Gusts Pressure Precip Precip Rate Daily Precip Total
12:00 AM 47.5°F8.6°C 40.0°F4.4°C 75% 2.2 mph NE3.5 kmh NE 6.0 mph9.7 kmh 30.19 in1022.4 mb 0.00 in0.0 mm 0.00 in0.0 mm 0.00 in0.0 mm
12:15 AM 47.5°F8.6°C 40.0°F4.4°C 75% 2.2 mph NE3.5 kmh NE 6.0 mph9.7 kmh 30.19 in1022.4 mb 0.00 in0.0 mm 0.00 in0.0 mm 0.00 in0.0 mm
12:30 AM 47.3°F8.5°C 40.1°F4.5°C 76% 3.1 mph NE5.0 kmh NE 5.4 mph8.7 kmh 30.19 in1022.4 mb 0.00 in0.0 mm 0.00 in0.0 mm 0.00 in0.0 mm
12:45 AM 47.1°F8.4°C 40.0°F4.4°C 76% 0.7 mph NE1.1 kmh NE 6.9 mph11.1 kmh 30.18 in1022.0 mb 0.00 in0.0 mm 0.00 in0.0 mm 0.00 in0.0 mm
01:00 AM 46.9°F8.3°C 40.1°F4.5°C 77% 3.1 mph ENE5.0 kmh ENE 6.0 mph9.7 kmh 30.18 in1022.0 mb 0.00 in0.0 mm 0.00 in0.0 mm 0.00 in0.0 mm
01:15 AM 46.9°F8.3°C 40.4°F4.7°C 78% 3.1 mph NNE5.0 kmh NNE 7.6 mph12.2 kmh 30.18 in1022.0 mb 0.00 in0.0 mm 0.00 in0.0 mm 0.00 in0.0 mm
01:30 AM 46.8°F8.2°C 40.3°F4.6°C 78% 3.1 mph NNE5.0 kmh NNE 6.0 mph9.7 kmh 30.18 in1022.0 mb 0.00 in0.0 mm 0.00 in0.0 mm 0.00 in0.0 mm
01:45 AM 46.9°F8.3°C 40.4°F4.7°C 78% 2.2 mph N3.5 kmh N 7.6 mph12.2 kmh 30.18 in1022.0 mb 0.00 in0.0 mm 0.00 in0.0 mm 0.00 in0.0 mm
02:00 AM 46.8°F8.2°C 40.3°F4.6°C 78% 2.2 mph NE3.5 kmh NE 6.0 mph9.7 kmh 30.18 in1022.0 mb 0.00 in0.0 mm 0.00 in0.0 mm 0.00 in0.0 mm
02:15 AM 46.4°F8.0°C 39.6°F4.2°C 77% 2.2 mph NNE3.5 kmh NNE 6.0 mph9.7 kmh 30.18 in1022.0 mb 0.00 in0.0 mm 0.00 in0.0 mm 0.00 in0.0 mm
02:30 AM 46.0°F7.8°C 39.6°F4.2°C 78% 3.1 mph NNE5.0 kmh NNE 6.9 mph11.1 kmh 30.18 in1022.0 mb 0.00 in0.0 mm 0.00 in0.0 mm 0.00 in0.0 mm
02:45 AM 45.5°F7.5°C 39.0°F3.9°C 78% 1.6 mph N2.6 kmh N 6.9 mph11.1 kmh 30.18 in1022.0 mb 0.00 in0.0 mm 0.00 in0.0 mm 0.00 in0.0 mm
03:00 AM 45.1°F7.3°C 39.0°F3.9°C 79% 2.2 mph N3.5 kmh N 6.0 mph9.7 kmh 30.16 in1021.3 mb 0.00 in0.0 mm 0.00 in0.0 mm 0.00 in0.0 mm
03:15 AM 44.8°F7.1°C 39.3°F4.1°C 81% 3.8 mph N6.1 kmh N 6.9 mph11.1 kmh 30.16 in1021.3 mb 0.00 in0.0 mm 0.00 in0.0 mm 0.00 in0.0 mm
03:30 AM 44.4°F6.9°C 39.3°F4.1°C 82% 3.1 mph N5.0 kmh N 5.4 mph8.7 kmh 30.15 in1021.0 mb 0.00 in0.0 mm 0.00 in0.0 mm 0.00 in0.0 mm
03:45 AM 44.2°F6.8°C 39.4°F4.1°C 83% 2.2 mph NNE3.5 kmh NNE 4.5 mph7.2 kmh 30.14 in1020.7 mb 0.00 in0.0 mm 0.00 in0.0 mm 0.00 in0.0 mm
04:00 AM 44.1°F6.7°C 39.5°F4.2°C 84% 2.2 mph NE3.5 kmh NE 5.4 mph8.7 kmh 30.14 in1020.7 mb 0.00 in0.0 mm 0.00 in0.0 mm 0.00 in0.0 mm
04:15 AM 43.9°F6.6°C 39.4°F4.1°C 84% 2.2 mph N3.5 kmh N 5.4 mph8.7 kmh 30.14 in1020.7 mb 0.00 in0.0 mm 0.00 in0.0 mm 0.00 in0.0 mm
04:30 AM 43.7°F6.5°C 39.5°F4.2°C 85% 2.2 mph NE3.5 kmh NE 5.4 mph8.7 kmh 30.13 in1020.3 mb 0.00 in0.0 mm 0.00 in0.0 mm 0.00 in0.0 mm
04:45 AM 43.5°F6.4°C 39.3°F4.1°C 85% 1.6 mph N2.6 kmh N 6.0 mph9.7 kmh 30.14 in1020.7 mb 0.00 in0.0 mm 0.00 in0.0 mm 0.00 in0.0 mm
05:00 AM 43.2°F6.2°C 39.0°F3.9°C 85% 1.6 mph N2.6 kmh N 3.1 mph5.0 kmh 30.12 in1020.0 mb 0.00 in0.0 mm 0.00 in0.0 mm 0.00 in0.0 mm
05:15 AM 43.3°F6.3°C 39.4°F4.1°C 86% 2.2 mph NW3.5 kmh NW 4.5 mph7.2 kmh 30.13 in1020.3 mb 0.00 in0.0 mm 0.00 in0.0 mm 0.00 in0.0 mm
05:30 AM 43.3°F6.3°C 40.0°F4.4°C 88% 0.7 mph NNE1.1 kmh NNE 3.8 mph6.1 kmh 30.12 in1020.0 mb 0.00 in0.0 mm 0.00 in0.0 mm 0.00 in0.0 mm
05:45 AM 43.7°F6.5°C 40.7°F4.8°C 89% 2.2 mph NNE3.5 kmh NNE 6.0 mph9.7 kmh 30.12 in1020.0 mb 0.00 in0.0 mm 0.00 in0.0 mm 0.00 in0.0 mm
06:00 AM 44.1°F6.7°C 41.3°F5.2°C 90% 3.1 mph NE5.0 kmh NE 6.9 mph11.1 kmh 30.13 in1020.3 mb 0.00 in0.0 mm 0.00 in0.0 mm 0.00 in0.0 mm
06:15 AM 43.7°F6.5°C 40.7°F4.8°C 89% 0.7 mph N1.1 kmh N 5.4 mph8.7 kmh 30.13 in1020.3 mb 0.00 in0.0 mm 0.00 in0.0 mm 0.00 in0.0 mm
06:30 AM 43.5°F6.4°C 40.8°F4.9°C 90% 0.7 mph N1.1 kmh N 6.0 mph9.7 kmh 30.13 in1020.3 mb 0.00 in0.0 mm 0.00 in0.0 mm 0.00 in0.0 mm
06:45 AM 43.5°F6.4°C 40.8°F4.9°C 90% 3.1 mph N5.0 kmh N 6.0 mph9.7 kmh 30.14 in1020.7 mb 0.00 in0.0 mm 0.00 in0.0 mm 0.00 in0.0 mm
07:00 AM 43.7°F6.5°C 41.2°F5.1°C 91% 3.1 mph NE5.0 kmh NE 4.5 mph7.2 kmh 30.14 in1020.7 mb 0.00 in0.0 mm 0.00 in0.0 mm 0.00 in0.0 mm
07:15 AM 43.9°F6.6°C 41.7°F5.4°C 92% 2.2 mph NNE3.5 kmh NNE 6.0 mph9.7 kmh 30.13 in1020.3 mb 0.00 in0.0 mm 0.00 in0.0 mm 0.00 in0.0 mm
07:30 AM 43.9°F6.6°C 41.7°F5.4°C 92% 1.6 mph NE2.6 kmh NE 7.6 mph12.2 kmh 30.14 in1020.7 mb 0.00 in0.0 mm 0.00 in0.0 mm 0.00 in0.0 mm
07:45 AM 44.2°F6.8°C 42.1°F5.6°C 92% 3.1 mph NE5.0 kmh NE 7.6 mph12.2 kmh 30.13 in1020.3 mb 0.00 in0.0 mm 0.00 in0.0 mm 0.00 in0.0 mm
08:00 AM 45.5°F7.5°C 43.0°F6.1°C 91% 1.6 mph NE2.6 kmh NE 6.9 mph11.1 kmh 30.14 in1020.7 mb 0.00 in0.0 mm 0.00 in0.0 mm 0.00 in0.0 mm
08:15 AM 46.8°F8.2°C 43.7°F6.5°C 89% 4.5 mph NNE7.2 kmh NNE 8.3 mph13.4 kmh 30.14 in1020.7 mb 0.00 in0.0 mm 0.00 in0.0 mm 0.00 in0.0 mm
08:30 AM 48.0°F8.9°C 44.0°F6.7°C 86% 5.4 mph NE8.7 kmh NE 8.3 mph13.4 kmh 30.14 in1020.7 mb 0.00 in0.0 mm 0.00 in0.0 mm 0.00 in0.0 mm
08:45 AM 48.7°F9.3°C 43.5°F6.4°C 82% 4.5 mph NE7.2 kmh NE 9.8 mph15.8 kmh 30.14 in1020.7 mb 0.00 in0.0 mm 0.00 in0.0 mm 0.00 in0.0 mm
09:00 AM 49.1°F9.5°C 42.5°F5.8°C 78% 5.4 mph NE8.7 kmh NE 10.7 mph17.2 kmh 30.14 in1020.7 mb 0.00 in0.0 mm 0.00 in0.0 mm 0.00 in0.0 mm
09:15 AM 50.5°F10.3°C 43.9°F6.6°C 78% 2.2 mph NE3.5 kmh NE 7.6 mph12.2 kmh 30.14 in1020.7 mb 0.00 in0.0 mm 0.00 in0.0 mm 0.00 in0.0 mm
09:30 AM 51.3°F10.7°C 43.6°F6.4°C 75% 2.2 mph NE3.5 kmh NE 9.8 mph15.8 kmh 30.15 in1021.0 mb 0.00 in0.0 mm 0.00 in0.0 mm 0.00 in0.0 mm
09:45 AM 51.8°F11.0°C 43.1°F6.2°C 72% 3.8 mph NNE6.1 kmh NNE 11.4 mph18.3 kmh 30.14 in1020.7 mb 0.00 in0.0 mm 0.00 in0.0 mm 0.00 in0.0 mm
10:00 AM 53.1°F11.7°C 44.3°F6.8°C 72% 3.8 mph NE6.1 kmh NE 10.7 mph17.2 kmh 30.14 in1020.7 mb 0.00 in0.0 mm 0.00 in0.0 mm 0.00 in0.0 mm
10:15 AM 54.0°F12.2°C 43.6°F6.4°C 68% 3.1 mph NNE5.0 kmh NNE 11.4 mph18.3 kmh 30.14 in1020.7 mb 0.00 in0.0 mm 0.00 in0.0 mm 0.00 in0.0 mm
10:30 AM 54.3°F12.4°C 44.0°F6.7°C 68% 5.4 mph NNE8.7 kmh NNE 10.7 mph17.2 kmh 30.14 in1020.7 mb 0.00 in0.0 mm 0.00 in0.0 mm 0.00 in0.0 mm
10:45 AM 55.4°F13.0°C 44.2°F6.8°C 66% 3.8 mph NE6.1 kmh NE 11.4 mph18.3 kmh 30.12 in1020.0 mb 0.00 in0.0 mm 0.00 in0.0 mm 0.00 in0.0 mm
11:00 AM 55.2°F12.9°C 43.7°F6.5°C 65% 3.8 mph ENE6.1 kmh ENE 11.4 mph18.3 kmh 30.13 in1020.3 mb 0.00 in0.0 mm 0.00 in0.0 mm 0.00 in0.0 mm
11:15 AM 56.7°F13.7°C 43.8°F6.6°C 62% 4.5 mph N7.2 kmh N 13.6 mph21.9 kmh 30.12 in1020.0 mb 0.00 in0.0 mm 0.00 in0.0 mm 0.00 in0.0 mm
11:30 AM 57.2°F14.0°C 43.5°F6.4°C 60% 6.9 mph NE11.1 kmh NE 13.6 mph21.9 kmh 30.10 in1019.3 mb 0.00 in0.0 mm 0.00 in0.0 mm 0.00 in0.0 mm
11:45 AM 57.2°F14.0°C 43.0°F6.1°C 59% 6.0 mph ENE9.7 kmh ENE 15.9 mph25.6 kmh 30.10 in1019.3 mb 0.00 in0.0 mm 0.00 in0.0 mm 0.00 in0.0 mm
12:00 PM 57.7°F14.3°C 43.1°F6.2°C 58% 6.9 mph NNE11.1 kmh NNE 14.5 mph23.3 kmh 30.09 in1019.0 mb 0.00 in0.0 mm 0.00 in0.0 mm 0.00 in0.0 mm
12:15 PM 58.1°F14.5°C 43.4°F6.3°C 58% 6.0 mph NNE9.7 kmh NNE 13.6 mph21.9 kmh 30.08 in1018.6 mb 0.00 in0.0 mm 0.00 in0.0 mm 0.00 in0.0 mm
12:30 PM 58.5°F14.7°C 42.4°F5.8°C 55% 6.0 mph NE9.7 kmh NE 13.0 mph20.9 kmh 30.07 in1018.3 mb 0.00 in0.0 mm 0.00 in0.0 mm 0.00 in0.0 mm
12:45 PM 59.4°F15.2°C 42.2°F5.7°C 53% 6.9 mph NE11.1 kmh NE 16.8 mph27.0 kmh 30.07 in1018.3 mb 0.00 in0.0 mm 0.00 in0.0 mm 0.00 in0.0 mm
01:00 PM 59.9°F15.5°C 41.7°F5.4°C 51% 4.5 mph NNE7.2 kmh NNE 13.0 mph20.9 kmh 30.07 in1018.3 mb 0.00 in0.0 mm 0.00 in0.0 mm 0.00 in0.0 mm
01:15 PM 61.0°F16.1°C 40.1°F4.5°C 46% 5.4 mph NE8.7 kmh NE 13.0 mph20.9 kmh 30.05 in1017.6 mb 0.00 in0.0 mm 0.00 in0.0 mm 0.00 in0.0 mm
01:30 PM 61.3°F16.3°C 41.0°F5.0°C 47% 6.0 mph NE9.7 kmh NE 15.2 mph24.5 kmh 30.04 in1017.3 mb 0.00 in0.0 mm 0.00 in0.0 mm 0.00 in0.0 mm
01:45 PM 62.1°F16.7°C 42.2°F5.7°C 48% 9.2 mph NE14.8 kmh NE 15.9 mph25.6 kmh 30.03 in1016.9 mb 0.00 in0.0 mm 0.00 in0.0 mm 0.00 in0.0 mm
02:00 PM 62.6°F17.0°C 41.0°F5.0°C 45% 7.6 mph N12.2 kmh N 13.6 mph21.9 kmh 30.01 in1016.3 mb 0.00 in0.0 mm 0.00 in0.0 mm 0.00 in0.0 mm
02:15 PM 62.8°F17.1°C 40.6°F4.8°C 44% 3.8 mph NE6.1 kmh NE 13.6 mph21.9 kmh 30.00 in1015.9 mb 0.00 in0.0 mm 0.00 in0.0 mm 0.00 in0.0 mm
02:30 PM 64.2°F17.9°C 41.3°F5.2°C 43% 5.4 mph NE8.7 kmh NE 13.6 mph21.9 kmh 29.99 in1015.6 mb 0.00 in0.0 mm 0.00 in0.0 mm 0.00 in0.0 mm
02:45 PM 63.3°F17.4°C 41.6°F5.3°C 45% 4.5 mph NE7.2 kmh NE 13.0 mph20.9 kmh 29.98 in1015.2 mb 0.00 in0.0 mm 0.00 in0.0 mm 0.00 in0.0 mm
03:00 PM 63.3°F17.4°C 41.6°F5.3°C 45% 5.4 mph NE8.7 kmh NE 13.0 mph20.9 kmh 29.97 in1014.9 mb 0.00 in0.0 mm 0.00 in0.0 mm 0.00 in0.0 mm
03:15 PM 64.2°F17.9°C 43.6°F6.4°C 47% 4.5 mph NE7.2 kmh NE 12.1 mph19.5 kmh 29.96 in1014.6 mb 0.00 in0.0 mm 0.00 in0.0 mm 0.00 in0.0 mm
03:30 PM 64.8°F18.2°C 41.8°F5.4°C 43% 2.2 mph NE3.5 kmh NE 12.1 mph19.5 kmh 29.96 in1014.6 mb 0.00 in0.0 mm 0.00 in0.0 mm 0.00 in0.0 mm
03:45 PM 64.0°F17.8°C 40.5°F4.7°C 42% 9.2 mph NNE14.8 kmh NNE 16.8 mph27.0 kmh 29.95 in1014.2 mb 0.00 in0.0 mm 0.00 in0.0 mm 0.00 in0.0 mm
04:00 PM 65.3°F18.5°C 42.2°F5.7°C 43% 5.4 mph N8.7 kmh N 12.1 mph19.5 kmh 29.94 in1013.9 mb 0.00 in0.0 mm 0.00 in0.0 mm 0.00 in0.0 mm
04:15 PM 64.8°F18.2°C 41.2°F5.1°C 42% 6.0 mph N9.7 kmh N 13.6 mph21.9 kmh 29.93 in1013.5 mb 0.00 in0.0 mm 0.00 in0.0 mm 0.00 in0.0 mm
04:30 PM 64.9°F18.3°C 41.9°F5.5°C 43% 7.6 mph NE12.2 kmh NE 11.4 mph18.3 kmh 29.92 in1013.2 mb 0.00 in0.0 mm 0.00 in0.0 mm 0.00 in0.0 mm
04:45 PM 64.8°F18.2°C 42.4°F5.8°C 44% 5.4 mph NNE8.7 kmh NNE 13.6 mph21.9 kmh 29.92 in1013.2 mb 0.00 in0.0 mm 0.00 in0.0 mm 0.00 in0.0 mm
05:00 PM 64.6°F18.1°C 43.4°F6.3°C 46% 9.2 mph NNE14.8 kmh NNE 13.0 mph20.9 kmh 29.90 in1012.5 mb 0.00 in0.0 mm 0.00 in0.0 mm 0.00 in0.0 mm
05:15 PM 64.9°F18.3°C 43.1°F6.2°C 45% 3.8 mph NNE6.1 kmh NNE 10.7 mph17.2 kmh 29.91 in1012.9 mb 0.00 in0.0 mm 0.00 in0.0 mm 0.00 in0.0 mm
05:30 PM 64.6°F18.1°C 43.4°F6.3°C 46% 6.0 mph NE9.7 kmh NE 10.7 mph17.2 kmh 29.90 in1012.5 mb 0.00 in0.0 mm 0.00 in0.0 mm 0.00 in0.0 mm
05:45 PM 64.8°F18.2°C 43.5°F6.4°C 46% 3.8 mph NNE6.1 kmh NNE 12.1 mph19.5 kmh 29.89 in1012.2 mb 0.00 in0.0 mm 0.00 in0.0 mm 0.00 in0.0 mm
06:00 PM 63.7°F17.6°C 44.2°F6.8°C 49% 3.8 mph NE6.1 kmh NE 11.4 mph18.3 kmh 29.89 in1012.2 mb 0.00 in0.0 mm 0.00 in0.0 mm 0.00 in0.0 mm
06:15 PM 63.0°F17.2°C 44.0°F6.7°C 50% 3.1 mph NNE5.0 kmh NNE 12.1 mph19.5 kmh 29.89 in1012.2 mb 0.00 in0.0 mm 0.00 in0.0 mm 0.00 in0.0 mm
06:30 PM 61.3°F16.3°C 43.6°F6.4°C 52% 3.8 mph NNE6.1 kmh NNE 9.8 mph15.8 kmh 29.88 in1011.9 mb 0.00 in0.0 mm 0.00 in0.0 mm 0.00 in0.0 mm
06:45 PM 59.2°F15.1°C 44.0°F6.7°C 57% 2.2 mph NNE3.5 kmh NNE 6.0 mph9.7 kmh 29.88 in1011.9 mb 0.00 in0.0 mm 0.00 in0.0 mm 0.00 in0.0 mm
07:00 PM 58.5°F14.7°C 44.6°F7.0°C 60% 2.2 mph N3.5 kmh N 8.3 mph13.4 kmh 29.87 in1011.5 mb 0.00 in0.0 mm 0.00 in0.0 mm 0.00 in0.0 mm
07:15 PM 57.7°F14.3°C 45.2°F7.3°C 63% 3.1 mph N5.0 kmh N 6.9 mph11.1 kmh 29.87 in1011.5 mb 0.00 in0.0 mm 0.00 in0.0 mm 0.00 in0.0 mm
07:30 PM 57.2°F14.0°C 45.1°F7.3°C 64% 3.8 mph NE6.1 kmh NE 7.6 mph12.2 kmh 29.87 in1011.5 mb 0.00 in0.0 mm 0.00 in0.0 mm 0.00 in0.0 mm
07:45 PM 57.0°F13.9°C 45.8°F7.7°C 66% 3.1 mph NE5.0 kmh NE 7.6 mph12.2 kmh 29.87 in1011.5 mb 0.00 in0.0 mm 0.00 in0.0 mm 0.00 in0.0 mm
08:00 PM 56.7°F13.7°C 46.2°F7.9°C 68% 2.2 mph N3.5 kmh N 6.9 mph11.1 kmh 29.88 in1011.9 mb 0.00 in0.0 mm 0.00 in0.0 mm 0.00 in0.0 mm
08:15 PM 55.9°F13.3°C 45.9°F7.7°C 69% 1.6 mph N2.6 kmh N 6.9 mph11.1 kmh 29.87 in1011.5 mb 0.00 in0.0 mm 0.00 in0.0 mm 0.00 in0.0 mm
08:30 PM 55.4°F13.0°C 45.4°F7.4°C 69% 1.6 mph NE2.6 kmh NE 4.5 mph7.2 kmh 29.86 in1011.2 mb 0.00 in0.0 mm 0.00 in0.0 mm 0.00 in0.0 mm
08:45 PM 55.4°F13.0°C 45.0°F7.2°C 68% 6.0 mph NNE9.7 kmh NNE 9.2 mph14.8 kmh 29.86 in1011.2 mb 0.00 in0.0 mm 0.00 in0.0 mm 0.00 in0.0 mm
09:00 PM 55.6°F13.1°C 44.8°F7.1°C 67% 3.8 mph N6.1 kmh N 7.6 mph12.2 kmh 29.86 in1011.2 mb 0.00 in0.0 mm 0.00 in0.0 mm 0.00 in0.0 mm
09:15 PM 55.4°F13.0°C 44.6°F7.0°C 67% 1.6 mph N2.6 kmh N 7.6 mph12.2 kmh 29.87 in1011.5 mb 0.00 in0.0 mm 0.00 in0.0 mm 0.00 in0.0 mm
09:30 PM 54.7°F12.6°C 44.3°F6.8°C 68% 3.1 mph NW5.0 kmh NW 8.3 mph13.4 kmh 29.87 in1011.5 mb 0.00 in0.0 mm 0.00 in0.0 mm 0.00 in0.0 mm
09:45 PM 54.3°F12.4°C 44.4°F6.9°C 69% 5.4 mph N8.7 kmh N 7.6 mph12.2 kmh 29.87 in1011.5 mb 0.00 in0.0 mm 0.00 in0.0 mm 0.00 in0.0 mm
10:00 PM 53.6°F12.0°C 44.1°F6.7°C 70% 2.2 mph NNE3.5 kmh NNE 9.8 mph15.8 kmh 29.87 in1011.5 mb 0.00 in0.0 mm 0.00 in0.0 mm 0.00 in0.0 mm
10:15 PM 53.4°F11.9°C 44.6°F7.0°C 72% 2.2 mph N3.5 kmh N 6.0 mph9.7 kmh 29.88 in1011.9 mb 0.00 in0.0 mm 0.00 in0.0 mm 0.00 in0.0 mm
10:30 PM 53.1°F11.7°C 44.3°F6.8°C 72% 1.6 mph N2.6 kmh N 5.4 mph8.7 kmh 29.87 in1011.5 mb 0.00 in0.0 mm 0.00 in0.0 mm 0.00 in0.0 mm
10:45 PM 52.3°F11.3°C 44.0°F6.7°C 73% 2.2 mph N3.5 kmh N 8.3 mph13.4 kmh 29.87 in1011.5 mb 0.00 in0.0 mm 0.00 in0.0 mm 0.00 in0.0 mm
11:00 PM 52.2°F11.2°C 44.5°F6.9°C 75% 1.6 mph N2.6 kmh N 8.3 mph13.4 kmh 29.87 in1011.5 mb 0.00 in0.0 mm 0.00 in0.0 mm 0.00 in0.0 mm
11:15 PM 52.2°F11.2°C 44.8°F7.1°C 76% 4.5 mph N7.2 kmh N 6.9 mph11.1 kmh 29.86 in1011.2 mb 0.00 in0.0 mm 0.00 in0.0 mm 0.00 in0.0 mm
11:30 PM 52.0°F11.1°C 44.7°F7.1°C 76% 3.1 mph N5.0 kmh N 9.8 mph15.8 kmh 29.86 in1011.2 mb 0.00 in0.0 mm 0.00 in0.0 mm 0.00 in0.0 mm
11:45 PM 51.6°F10.9°C 44.7°F7.1°C 77% 2.2 mph NE3.5 kmh NE 7.6 mph12.2 kmh 29.86 in1011.2 mb 0.00 in0.0 mm 0.00 in0.0 mm 0.00 in0.0 mm